Terminal Aerodrome Forecast
Issued by NWS Cleveland, OH

Current Version | Previous Version | Text Only | Print | Product List | Glossary On
Versions: 1 2 3 4 5 6 7 8 9 10 11 12 13 14 15 16 17 18
000
FTUS41 KCLE 020500
TAFTOL
TAF
KTOL 020520Z 0206/0306 19010KT P6SM SCT100 BKN250
     FM021400 20015G25KT P6SM VCSH BKN050 OVC100
     FM021600 20015G25KT P6SM -SHRA SCT025 OVC050
     FM021900 22015G25KT 5SM -RA BR OVC025
     FM022200 25015G25KT 2SM -RA BR OVC008=

USA.gov is the U.S. government's official web portal to all federal, state and local government web resources and services.